Thursday, September 20, 2018, 4:23 PM EDT
Back to Local

KMMU, Morristown Municipal

Location: Morristown, NJ, United States Lat: 40.8
Local Time: 4:23 PM EDT (20:23 GMT) Lon: -74.417
Time Zone: US/Eastern Elev: 187 ft

Show me the last for .
Show Decoded

2018-09-20 15:45 METAR KMMU 201945Z 13004KT 10SM BKN030 OVC034 21/17 A3021 =
2018-09-20 14:45 METAR KMMU 201845Z 08003KT 10SM OVC026 21/16 A3023 =
2018-09-20 13:45 METAR KMMU 201745Z 00000KT 10SM OVC022 21/16 A3024 =
2018-09-20 12:45 METAR KMMU 201645Z 00000KT 10SM OVC022 20/16 A3025 =
2018-09-20 11:45 METAR KMMU 201545Z 00000KT 10SM OVC022 19/16 A3025 =
2018-09-20 10:45 METAR KMMU 201445Z 09004KT 10SM OVC020 19/16 A3025 =
2018-09-20 09:50 METAR KMMU 201350Z 00000KT 10SM OVC017 19/16 A3023 =
2018-09-20 08:45 METAR KMMU 201245Z 10003KT 10SM OVC018 18/17 A3021 =
2018-09-20 07:45 METAR KMMU 201145Z 00000KT 10SM OVC020 17/17 A3019 =
2018-09-20 06:45 METAR KMMU 201045Z 07004KT 10SM OVC018 17/17 A3016 =
2018-09-20 06:35 METAR KMMU 201035Z AUTO 00000KT 10SM OVC018 17/17 A3015 RMK AO2 =
2018-09-20 06:15 METAR KMMU 201015Z AUTO 00000KT 10SM OVC018 17/17 A3014 RMK AO2 =
2018-09-20 05:55 METAR KMMU 200955Z AUTO 08003KT 7SM BKN014 OVC020 17/17 A3013 RMK AO2 =
2018-09-20 05:35 METAR KMMU 200935Z AUTO 00000KT 7SM SCT012 OVC018 17/17 A3013 RMK AO2 =
2018-09-20 05:10 METAR KMMU 200910Z AUTO 00000KT 7SM -DZ OVC016 17/17 A3011 RMK AO2 =
2018-09-20 04:55 METAR KMMU 200855Z AUTO 08003KT 7SM -RA OVC014 18/18 A3011 RMK AO2 =
2018-09-20 04:35 METAR KMMU 200835Z AUTO 09003KT 5SM +RA OVC014 18/18 A3010 RMK AO2 P0002 =
2018-09-20 04:15 METAR KMMU 200815Z AUTO 08003KT 7SM -RA SCT008 OVC014 18/18 A3010 RMK AO2 P0001
                 =
2018-09-20 03:55 METAR KMMU 200755Z AUTO 07003KT 5SM -RA SCT010 OVC014 18/18 A3010 RMK AO2 =
2018-09-20 03:35 METAR KMMU 200735Z AUTO 00000KT 5SM RA BKN010 OVC015 19/19 A3009 RMK AO2 P0001 =
2018-09-20 03:15 METAR KMMU 200715Z AUTO 09003KT 7SM -RA OVC012 19/19 A3008 RMK AO2 =
2018-09-20 02:55 METAR KMMU 200655Z AUTO 10003KT 7SM -RA OVC012 19/19 A3008 RMK AO2 =
2018-09-20 02:35 METAR KMMU 200635Z AUTO 00000KT 7SM DZ OVC012 20/19 A3008 RMK AO2 =
2018-09-20 02:15 METAR KMMU 200615Z AUTO 00000KT 10SM -RA OVC012 20/20 A3008 RMK AO2 =
2018-09-20 01:55 METAR KMMU 200555Z AUTO 00000KT 10SM OVC012 20/20 A3008 RMK AO2 =
2018-09-20 01:35 METAR KMMU 200535Z AUTO 00000KT 10SM OVC012 20/20 A3008 RMK AO2 =
2018-09-20 01:15 METAR KMMU 200515Z AUTO 00000KT 10SM BKN012 OVC020 20/20 A3008 RMK AO2 =
2018-09-20 00:55 METAR KMMU 200455Z AUTO 00000KT 10SM SCT012 BKN021 OVC026 20/20 A3007 RMK AO2 =
2018-09-20 00:35 METAR KMMU 200435Z AUTO 00000KT 10SM SCT010 BKN018 OVC027 20/20 A3006 RMK AO2 =
2018-09-20 00:15 METAR KMMU 200415Z AUTO 00000KT 10SM SCT012 OVC018 21/20 A3006 RMK AO2 =
2018-09-19 23:55 METAR KMMU 200355Z AUTO 00000KT 10SM SCT012 OVC020 21/20 A3006 RMK AO2 =
2018-09-19 23:35 METAR KMMU 200335Z AUTO 00000KT 10SM RA SCT010 BKN018 OVC027 21/20 A3006 RMK AO2
                 =
2018-09-19 23:15 METAR KMMU 200315Z AUTO 00000KT 10SM -RA BKN012 OVC028 21/20 A3005 RMK AO2 =
2018-09-19 22:55 METAR KMMU 200255Z AUTO 00000KT 10SM OVC012 21/20 A3005 RMK AO2 =
2018-09-19 22:35 METAR KMMU 200235Z AUTO 00000KT 10SM SCT012 BKN023 OVC042 21/20 A3004 RMK AO2 =
2018-09-19 22:15 METAR KMMU 200215Z AUTO 00000KT 10SM SCT017 BKN024 OVC037 21/20 A3004 RMK AO2 =
2018-09-19 21:45 METAR KMMU 200145Z 00000KT 10SM OVC012 22/21 A3004 =
2018-09-19 20:45 METAR KMMU 200045Z 00000KT 10SM SCT010 OVC050 22/21 A3002 =
2018-09-19 19:45 METAR KMMU 192345Z 00000KT 10SM OVC050 21/20 A2998 =
2018-09-19 18:45 METAR KMMU 192245Z 00000KT 10SM SCT042 SCT050 24/21 A2995 =
2018-09-19 17:45 METAR KMMU 192145Z 02004KT 10SM SCT043 BKN055 25/20 A2994 =
2018-09-19 16:46 METAR KMMU 192046Z 04004KT 10SM SCT043 BKN050 26/20 A2993 =
2018-09-19 16:45 METAR KMMU 192045Z 04004KT 10SM SCT043 BKN050 26/20 A2993 =

Support USWX by starting your Amazon purchase here.